createdAt,value
2019-01-24T00:02:17.868Z,15.20
2019-01-24T00:04:45.080Z,14.83
2019-01-24T00:07:12.142Z,15.50
2019-01-24T00:09:39.220Z,13.07
2019-01-24T00:12:06.329Z,14.70
2019-01-24T00:14:33.394Z,14.67
2019-01-24T00:17:00.460Z,13.40
2019-01-24T00:19:27.744Z,14.67
2019-01-24T00:21:54.806Z,13.87
2019-01-24T00:24:21.917Z,14.17
2019-01-24T00:26:48.972Z,15.27
2019-01-24T00:29:16.474Z,14.00
2019-01-24T00:31:43.684Z,13.53
2019-01-24T00:34:10.771Z,14.80
2019-01-24T00:36:38.269Z,13.97
2019-01-24T00:39:05.347Z,13.93
2019-01-24T00:41:32.418Z,14.50
2019-01-24T00:43:59.941Z,14.27
2019-01-24T00:46:27.307Z,14.47
2019-01-24T00:48:54.572Z,13.80
2019-01-24T00:51:21.659Z,12.90
2019-01-24T00:53:48.721Z,14.47
2019-01-24T00:56:15.929Z,13.50
2019-01-24T00:58:43.016Z,13.60
2019-01-24T01:01:10.117Z,14.63
2019-01-24T01:03:37.168Z,13.10
2019-01-24T01:06:04.485Z,13.53
2019-01-24T01:08:31.575Z,13.70
2019-01-24T01:10:58.682Z,12.80
2019-01-24T01:13:25.741Z,13.60
2019-01-24T01:15:53.160Z,13.57
2019-01-24T01:18:20.292Z,13.97
2019-01-24T01:20:47.372Z,14.83
2019-01-24T01:23:14.770Z,15.07
2019-01-24T01:25:41.919Z,13.60
2019-01-24T01:28:08.988Z,13.70
2019-01-24T01:30:36.059Z,13.73
2019-01-24T01:33:03.157Z,14.10
2019-01-24T01:35:30.220Z,13.60
2019-01-24T01:37:57.576Z,14.00
2019-01-24T01:40:24.887Z,13.40
2019-01-24T01:42:52.032Z,13.00
2019-01-24T01:45:19.131Z,14.00
2019-01-24T01:47:47.694Z,13.27
2019-01-24T01:50:14.753Z,13.37
2019-01-24T01:52:41.839Z,14.80
2019-01-24T01:55:08.928Z,14.30
2019-01-24T01:57:36.028Z,14.40
2019-01-24T02:00:03.124Z,14.47
2019-01-24T02:02:30.287Z,14.50
2019-01-24T02:04:57.397Z,14.20
2019-01-24T02:07:24.465Z,13.70
2019-01-24T02:09:51.584Z,14.37
2019-01-24T02:12:18.729Z,14.27
2019-01-24T02:14:45.946Z,13.73
2019-01-24T02:17:13.143Z,14.90
2019-01-24T02:19:40.236Z,14.10
2019-01-24T02:22:07.329Z,15.43
2019-01-24T02:24:34.411Z,14.53
2019-01-24T02:27:01.597Z,14.50
2019-01-24T02:29:28.789Z,14.33
2019-01-24T02:31:55.928Z,14.27
2019-01-24T02:34:23.022Z,14.53
2019-01-24T02:36:50.088Z,13.90
2019-01-24T02:39:17.155Z,14.47
2019-01-24T02:41:44.264Z,14.70
2019-01-24T02:44:11.330Z,13.70
2019-01-24T02:46:38.422Z,15.80
2019-01-24T02:49:05.636Z,15.30
2019-01-24T02:51:32.696Z,15.13
2019-01-24T02:53:59.800Z,14.67
2019-01-24T02:56:26.971Z,14.80
2019-01-24T02:58:54.274Z,14.93
2019-01-24T03:01:21.326Z,15.03
2019-01-24T03:03:48.417Z,14.03
2019-01-24T03:06:15.590Z,14.97
2019-01-24T03:08:42.703Z,15.07
2019-01-24T03:11:09.880Z,16.27
2019-01-24T03:13:36.949Z,15.50
2019-01-24T03:16:04.042Z,15.77
2019-01-24T03:18:31.096Z,14.57
2019-01-24T03:20:58.285Z,15.30
2019-01-24T03:23:26.524Z,16.00
2019-01-24T03:25:53.817Z,16.23
2019-01-24T03:28:20.877Z,15.50
2019-01-24T03:30:47.942Z,16.00
2019-01-24T03:33:15.059Z,15.07
2019-01-24T03:35:42.213Z,14.40
2019-01-24T03:38:09.275Z,15.00
2019-01-24T03:40:36.362Z,15.10
2019-01-24T03:43:03.422Z,15.20
2019-01-24T03:45:30.598Z,14.57
2019-01-24T03:47:57.671Z,16.40
2019-01-24T03:50:24.762Z,15.43
2019-01-24T03:52:51.832Z,16.50
2019-01-24T03:55:20.023Z,14.70
2019-01-24T03:57:47.198Z,15.70
2019-01-24T04:00:14.296Z,16.03
2019-01-24T04:02:41.360Z,14.93
2019-01-24T04:05:12.017Z,16.30
2019-01-24T04:07:37.518Z,15.17
2019-01-24T04:10:04.638Z,15.70
2019-01-24T04:12:31.708Z,15.30
2019-01-24T04:14:58.767Z,15.83
2019-01-24T04:17:25.923Z,16.63
2019-01-24T04:19:52.986Z,15.80
2019-01-24T04:22:20.082Z,17.47
2019-01-24T04:24:47.174Z,15.00
2019-01-24T04:27:14.308Z,17.20
2019-01-24T04:29:41.405Z,17.83
2019-01-24T04:32:08.594Z,16.50
2019-01-24T04:34:35.870Z,16.90
2019-01-24T04:37:02.938Z,16.30
2019-01-24T04:39:30.029Z,17.87
2019-01-24T04:41:57.122Z,17.10
2019-01-24T04:44:24.218Z,18.30
2019-01-24T04:46:51.293Z,16.63
2019-01-24T04:49:18.383Z,16.63
2019-01-24T04:51:45.447Z,17.37
2019-01-24T04:54:12.522Z,17.10
2019-01-24T04:56:39.635Z,17.60
2019-01-24T04:59:06.707Z,16.40
2019-01-24T05:01:33.757Z,17.40
2019-01-24T05:04:00.855Z,17.40
2019-01-24T05:06:27.912Z,16.83
2019-01-24T05:08:55.137Z,17.00
2019-01-24T05:11:22.189Z,17.07
2019-01-24T05:13:49.254Z,18.50
2019-01-24T05:16:16.489Z,17.20
2019-01-24T05:18:43.548Z,16.70
2019-01-24T05:21:10.640Z,16.70
2019-01-24T05:23:37.729Z,16.87
2019-01-24T05:26:04.886Z,18.20
2019-01-24T05:28:31.943Z,17.30
2019-01-24T05:30:59.042Z,17.10
2019-01-24T05:33:26.284Z,17.70
2019-01-24T05:35:53.344Z,18.23
2019-01-24T05:38:20.537Z,18.30
2019-01-24T05:40:47.640Z,18.47
2019-01-24T05:43:14.868Z,18.33
2019-01-24T05:45:42.085Z,17.20
2019-01-24T05:48:09.163Z,18.27
2019-01-24T05:50:36.225Z,17.60
2019-01-24T05:53:03.338Z,17.77
2019-01-24T05:55:30.486Z,17.43
2019-01-24T05:57:57.585Z,17.20
2019-01-24T06:00:24.647Z,18.60
2019-01-24T06:02:51.832Z,17.50
2019-01-24T06:05:19.118Z,17.90
2019-01-24T06:07:46.206Z,16.47
2019-01-24T06:10:13.293Z,17.40
2019-01-24T06:12:40.385Z,18.07
2019-01-24T06:15:07.516Z,18.23
2019-01-24T06:17:34.649Z,17.93
2019-01-24T06:20:01.948Z,19.13
2019-01-24T06:22:28.995Z,18.00
2019-01-24T06:24:56.284Z,18.40
2019-01-24T06:27:23.353Z,16.60
2019-01-24T06:29:50.459Z,17.13
2019-01-24T06:32:17.945Z,18.40
2019-01-24T06:34:45.176Z,22.30
2019-01-24T06:37:12.274Z,19.33
2019-01-24T06:39:39.356Z,18.30
2019-01-24T06:42:06.515Z,19.87
2019-01-24T06:44:33.582Z,18.60
2019-01-24T06:47:00.943Z,17.90
2019-01-24T06:49:28.027Z,18.07
2019-01-24T06:51:55.128Z,17.17
2019-01-24T06:54:22.485Z,18.60
2019-01-24T06:56:49.752Z,19.60
2019-01-24T06:59:16.859Z,18.97
2019-01-24T07:01:43.923Z,18.40
2019-01-24T07:04:11.032Z,17.83
2019-01-24T07:06:38.108Z,19.90
2019-01-24T07:09:05.344Z,18.17
2019-01-24T07:11:32.445Z,20.40
2019-01-24T07:13:59.507Z,18.57
2019-01-24T07:16:26.742Z,19.73
2019-01-24T07:18:53.877Z,19.77
2019-01-24T07:21:20.982Z,19.87
2019-01-24T07:23:48.091Z,18.90
2019-01-24T07:26:15.345Z,17.43
2019-01-24T07:28:42.537Z,18.70
2019-01-24T07:31:09.601Z,18.27
2019-01-24T07:33:36.669Z,19.70
2019-01-24T07:36:03.941Z,18.17
2019-01-24T07:38:31.074Z,19.17
2019-01-24T07:40:58.245Z,19.37
2019-01-24T07:43:25.498Z,19.17
2019-01-24T07:45:52.561Z,18.03
2019-01-24T07:48:19.633Z,19.57
2019-01-24T07:50:46.842Z,19.00
2019-01-24T07:53:13.900Z,18.70
2019-01-24T07:55:41.155Z,17.10
2019-01-24T07:58:08.230Z,18.77
2019-01-24T08:00:36.869Z,18.83
2019-01-24T08:03:03.997Z,19.20
2019-01-24T08:05:31.075Z,19.60
2019-01-24T08:07:58.228Z,18.80
2019-01-24T08:10:25.291Z,17.70
2019-01-24T08:12:52.386Z,20.67
2019-01-24T08:15:19.579Z,18.97
2019-01-24T08:17:46.717Z,19.10
2019-01-24T08:20:13.891Z,18.63
2019-01-24T08:22:40.954Z,18.57
2019-01-24T08:25:08.174Z,18.87
2019-01-24T08:27:35.291Z,18.60
2019-01-24T08:30:02.353Z,18.20
2019-01-24T08:32:29.454Z,18.40
2019-01-24T08:34:56.582Z,17.67
2019-01-24T08:37:23.650Z,20.27
2019-01-24T08:39:50.746Z,18.67
2019-01-24T08:42:17.814Z,18.57
2019-01-24T08:44:44.909Z,18.53
2019-01-24T08:47:12.248Z,19.13
2019-01-24T08:49:39.351Z,19.60
2019-01-24T08:52:06.439Z,18.00
2019-01-24T08:54:33.579Z,18.63
2019-01-24T08:57:00.670Z,18.47
2019-01-24T08:59:29.781Z,19.10
2019-01-24T09:01:56.778Z,19.27
2019-01-24T09:04:23.874Z,19.13
2019-01-24T09:06:50.968Z,18.33
2019-01-24T09:09:18.048Z,19.07
2019-01-24T09:11:45.137Z,18.63
2019-01-24T09:14:12.288Z,20.03
2019-01-24T09:16:39.449Z,19.37
2019-01-24T09:19:06.681Z,17.70
2019-01-24T09:21:33.782Z,19.13
2019-01-24T09:24:00.856Z,20.40
2019-01-24T09:26:28.068Z,20.20
2019-01-24T09:28:55.154Z,19.60
2019-01-24T09:31:22.241Z,18.57
2019-01-24T09:33:49.306Z,17.93
2019-01-24T09:36:16.437Z,19.07
2019-01-24T09:38:43.540Z,18.53
2019-01-24T09:41:10.697Z,18.33
2019-01-24T09:43:37.769Z,19.33
2019-01-24T09:46:05.078Z,19.33
2019-01-24T09:48:32.413Z,18.63
2019-01-24T09:50:59.506Z,18.50
2019-01-24T09:53:26.601Z,19.67
2019-01-24T09:55:53.675Z,19.63
2019-01-24T09:58:20.910Z,19.67
2019-01-24T10:00:48.050Z,17.80
2019-01-24T10:03:15.689Z,19.53
2019-01-24T10:05:42.770Z,19.87
2019-01-24T10:08:09.844Z,19.40
2019-01-24T10:10:36.955Z,19.37
2019-01-24T10:13:04.029Z,19.60
2019-01-24T10:15:31.260Z,18.03
2019-01-24T10:17:58.566Z,19.57
2019-01-24T10:20:25.661Z,18.27
2019-01-24T10:22:52.784Z,19.87
2019-01-24T10:25:19.924Z,19.70
2019-01-24T10:27:47.117Z,19.40
2019-01-24T10:30:14.312Z,20.20
2019-01-24T10:32:41.378Z,18.10
2019-01-24T10:35:08.528Z,19.17
2019-01-24T10:37:35.721Z,19.33
2019-01-24T10:40:02.835Z,18.80
2019-01-24T10:42:29.980Z,19.23
2019-01-24T10:44:57.270Z,17.90
2019-01-24T10:47:24.525Z,17.90
2019-01-24T10:49:51.575Z,18.70
2019-01-24T10:52:18.743Z,18.97
2019-01-24T10:54:45.905Z,19.50
2019-01-24T10:57:13.117Z,20.83
2019-01-24T10:59:40.177Z,18.63
2019-01-24T11:02:07.240Z,19.77
2019-01-24T11:04:34.357Z,17.93
2019-01-24T11:07:01.417Z,18.57
2019-01-24T11:09:28.520Z,19.40
2019-01-24T11:11:55.604Z,19.50
2019-01-24T11:14:22.691Z,19.70
2019-01-24T11:16:49.763Z,19.40
2019-01-24T11:19:16.862Z,20.70
2019-01-24T11:21:43.937Z,20.03
2019-01-24T11:24:11.090Z,18.30
2019-01-24T11:26:38.207Z,20.23
2019-01-24T11:29:05.364Z,17.90
2019-01-24T11:31:32.464Z,21.90
2019-01-24T11:33:59.570Z,21.30
2019-01-24T11:36:26.694Z,18.43
2019-01-24T11:38:53.785Z,18.10
2019-01-24T11:41:20.969Z,19.87
2019-01-24T11:43:48.091Z,19.80
2019-01-24T11:46:15.153Z,19.90
2019-01-24T11:48:42.356Z,19.57
2019-01-24T11:51:09.426Z,19.67
2019-01-24T11:53:36.529Z,20.67
2019-01-24T11:56:03.589Z,20.60
2019-01-24T11:58:31.006Z,21.00
2019-01-24T12:00:58.077Z,20.60
2019-01-24T12:03:25.146Z,19.87
2019-01-24T12:05:52.343Z,20.00
2019-01-24T12:08:19.447Z,18.90
2019-01-24T12:10:47.220Z,19.87
2019-01-24T12:13:14.328Z,19.50
2019-01-24T12:15:46.515Z,19.20
2019-01-24T12:18:15.539Z,18.10
2019-01-24T12:20:43.087Z,19.77
2019-01-24T12:23:10.172Z,17.87
2019-01-24T12:25:37.369Z,18.00
2019-01-24T12:28:06.356Z,18.90
2019-01-24T12:30:33.496Z,18.80
2019-01-24T12:33:04.224Z,19.83
2019-01-24T12:35:31.417Z,19.20
2019-01-24T12:37:59.324Z,18.73
2019-01-24T12:40:26.438Z,20.70
2019-01-24T12:42:53.550Z,19.40
2019-01-24T12:45:20.844Z,19.50
2019-01-24T12:47:47.913Z,18.90
2019-01-24T12:50:15.012Z,18.20
2019-01-24T12:52:42.109Z,17.80
2019-01-24T12:55:13.618Z,19.27
2019-01-24T12:57:40.785Z,18.97
2019-01-24T13:00:10.539Z,18.70
2019-01-24T13:02:37.646Z,18.10
2019-01-24T13:05:04.737Z,18.37
2019-01-24T13:07:31.825Z,19.30
2019-01-24T13:09:58.921Z,18.00
2019-01-24T13:12:26.022Z,19.67
2019-01-24T13:14:53.093Z,17.73
2019-01-24T13:17:20.507Z,18.70
2019-01-24T13:19:47.668Z,18.90
2019-01-24T13:22:14.782Z,19.30
2019-01-24T13:24:41.988Z,18.80
2019-01-24T13:27:09.075Z,17.50
2019-01-24T13:29:36.133Z,19.00
2019-01-24T13:32:03.246Z,17.83
2019-01-24T13:34:30.385Z,18.10
2019-01-24T13:36:57.637Z,18.47
2019-01-24T13:39:24.877Z,18.30
2019-01-24T13:41:51.949Z,18.27
2019-01-24T13:44:19.039Z,17.93
2019-01-24T13:46:46.174Z,20.10
2019-01-24T13:49:13.303Z,20.03
2019-01-24T13:51:40.427Z,22.90
2019-01-24T13:54:07.520Z,21.50
2019-01-24T13:56:34.605Z,21.60
2019-01-24T13:59:01.701Z,18.97
2019-01-24T14:01:40.106Z,23.50
2019-01-24T14:04:05.352Z,21.03
2019-01-24T14:06:32.509Z,20.27
2019-01-24T14:08:59.590Z,19.00
2019-01-24T14:11:26.824Z,20.67
2019-01-24T14:13:53.907Z,20.40
2019-01-24T14:16:21.043Z,20.03
2019-01-24T14:18:48.104Z,22.70
2019-01-24T14:21:15.201Z,20.50
2019-01-24T14:23:42.398Z,22.23
2019-01-24T14:26:10.507Z,20.73
2019-01-24T14:28:37.724Z,20.40
2019-01-24T14:31:05.024Z,19.23
2019-01-24T14:33:32.091Z,21.03
2019-01-24T14:35:59.145Z,20.37
2019-01-24T14:38:26.347Z,22.77
2019-01-24T14:40:53.409Z,21.10
2019-01-24T14:43:20.529Z,19.53
2019-01-24T14:45:47.667Z,19.90
2019-01-24T14:48:14.938Z,20.40
2019-01-24T14:50:42.006Z,19.63
2019-01-24T14:53:09.107Z,21.33
2019-01-24T14:55:36.301Z,21.17
2019-01-24T14:58:03.372Z,20.23
2019-01-24T15:00:30.516Z,21.73
2019-01-24T15:02:57.627Z,21.07
2019-01-24T15:05:24.900Z,22.43
2019-01-24T15:07:51.984Z,20.37
2019-01-24T15:10:19.164Z,20.57
2019-01-24T15:12:46.312Z,21.50
2019-01-24T15:15:13.519Z,20.53
2019-01-24T15:17:40.580Z,21.73
2019-01-24T15:20:07.682Z,21.53
2019-01-24T15:22:34.800Z,21.77
2019-01-24T15:25:01.866Z,20.43
2019-01-24T15:27:29.133Z,20.73
2019-01-24T15:29:56.269Z,21.00
2019-01-24T15:32:23.970Z,20.70
2019-01-24T15:34:51.038Z,19.47
2019-01-24T15:37:18.138Z,20.20
2019-01-24T15:39:45.247Z,19.87
2019-01-24T15:42:12.388Z,19.60
2019-01-24T15:44:39.462Z,19.43
2019-01-24T15:47:06.532Z,19.93
2019-01-24T15:49:33.786Z,19.73
2019-01-24T15:52:00.852Z,21.40
2019-01-24T15:54:28.095Z,20.63
2019-01-24T15:56:55.247Z,21.90
2019-01-24T15:59:22.427Z,20.90
2019-01-24T16:01:49.523Z,20.07
2019-01-24T16:04:19.934Z,20.60
2019-01-24T16:06:45.384Z,19.03
2019-01-24T16:09:12.504Z,20.00
2019-01-24T16:11:39.642Z,20.40
2019-01-24T16:14:06.799Z,21.73
2019-01-24T16:16:33.901Z,20.40
2019-01-24T16:19:01.031Z,20.93
2019-01-24T16:21:28.091Z,21.93
2019-01-24T16:23:55.192Z,22.43
2019-01-24T16:26:22.254Z,29.33
2019-01-24T16:28:49.319Z,26.33
2019-01-24T16:31:16.558Z,25.10
2019-01-24T16:33:43.691Z,25.97
2019-01-24T16:36:10.756Z,24.57
2019-01-24T16:38:37.905Z,23.03
2019-01-24T16:41:04.989Z,22.20
2019-01-24T16:43:32.051Z,22.33
2019-01-24T16:45:59.245Z,22.60
2019-01-24T16:48:26.344Z,22.80
2019-01-24T16:50:53.460Z,22.90
2019-01-24T16:53:20.528Z,22.90
2019-01-24T16:55:47.601Z,22.17
2019-01-24T16:58:14.906Z,21.00
2019-01-24T17:00:41.987Z,22.20
2019-01-24T17:03:09.050Z,21.90
2019-01-24T17:05:36.276Z,21.60
2019-01-24T17:08:03.443Z,22.27
2019-01-24T17:10:30.697Z,20.17
2019-01-24T17:12:57.818Z,21.40
2019-01-24T17:15:25.388Z,22.90
2019-01-24T17:17:52.598Z,21.10
2019-01-24T17:20:19.719Z,25.93
2019-01-24T17:22:46.859Z,29.97
2019-01-24T17:25:13.930Z,24.50
2019-01-24T17:27:46.108Z,24.30
2019-01-24T17:30:09.953Z,24.93
2019-01-24T17:32:37.126Z,20.50
2019-01-24T17:35:04.313Z,21.80
2019-01-24T17:37:31.382Z,22.53
2019-01-24T17:39:58.467Z,22.50
2019-01-24T17:42:25.539Z,21.80
2019-01-24T17:44:52.708Z,22.20
2019-01-24T17:47:20.005Z,23.40
2019-01-24T17:49:47.142Z,21.93
2019-01-24T17:52:14.265Z,22.23
2019-01-24T17:54:41.522Z,22.67
2019-01-24T17:57:08.593Z,20.27
2019-01-24T17:59:35.673Z,21.23
2019-01-24T18:02:02.785Z,20.13
2019-01-24T18:04:30.172Z,21.53
2019-01-24T18:06:57.283Z,21.03
2019-01-24T18:09:24.435Z,21.03
2019-01-24T18:11:51.539Z,21.83
2019-01-24T18:14:18.679Z,21.97
2019-01-24T18:16:45.770Z,20.77
2019-01-24T18:19:12.867Z,21.23
2019-01-24T18:21:40.071Z,20.53
2019-01-24T18:24:07.256Z,21.27
2019-01-24T18:26:34.557Z,19.73
2019-01-24T18:29:01.656Z,20.47
2019-01-24T18:31:28.783Z,20.23
2019-01-24T18:33:55.871Z,18.80
2019-01-24T18:36:23.176Z,20.00
2019-01-24T18:38:50.236Z,18.03
2019-01-24T18:41:17.385Z,19.40
2019-01-24T18:43:44.484Z,19.40
2019-01-24T18:46:11.768Z,19.20
2019-01-24T18:48:38.885Z,22.33
2019-01-24T18:51:05.998Z,20.63
2019-01-24T18:53:33.105Z,20.27
2019-01-24T18:56:00.354Z,20.63
2019-01-24T18:58:27.486Z,21.50
2019-01-24T19:00:54.643Z,18.73
2019-01-24T19:03:21.733Z,19.20
2019-01-24T19:05:48.969Z,21.83
2019-01-24T19:08:16.087Z,20.17
2019-01-24T19:10:43.218Z,20.27
2019-01-24T19:13:10.427Z,19.90
2019-01-24T19:15:38.158Z,20.53
2019-01-24T19:18:05.436Z,19.57
2019-01-24T19:20:32.566Z,19.10
2019-01-24T19:22:59.628Z,20.30
2019-01-24T19:25:28.149Z,20.20
2019-01-24T19:27:55.887Z,20.07
2019-01-24T19:30:24.738Z,20.20
2019-01-24T19:32:51.877Z,20.93
2019-01-24T19:35:20.160Z,21.80
2019-01-24T19:37:48.189Z,19.97
2019-01-24T19:40:15.355Z,19.80
2019-01-24T19:42:42.583Z,20.37
2019-01-24T19:45:09.670Z,18.77
2019-01-24T19:47:36.970Z,19.23
2019-01-24T19:50:04.085Z,17.83
2019-01-24T19:52:31.168Z,18.13
2019-01-24T19:54:58.235Z,18.40
2019-01-24T19:57:25.370Z,18.77
2019-01-24T19:59:52.461Z,18.37
2019-01-24T20:02:19.978Z,20.30
2019-01-24T20:04:47.025Z,19.17
2019-01-24T20:07:14.169Z,19.13
2019-01-24T20:09:41.265Z,19.57
2019-01-24T20:12:08.353Z,19.33
2019-01-24T20:14:35.545Z,18.90
2019-01-24T20:17:02.708Z,22.07
2019-01-24T20:19:29.816Z,24.23
2019-01-24T20:21:56.869Z,22.03
2019-01-24T20:24:24.033Z,22.20
2019-01-24T20:26:51.102Z,21.20
2019-01-24T20:29:19.420Z,21.20
2019-01-24T20:31:46.828Z,19.50
2019-01-24T20:34:13.927Z,22.27
2019-01-24T20:36:40.994Z,19.93
2019-01-24T20:39:08.088Z,21.10
2019-01-24T20:41:35.205Z,19.80
2019-01-24T20:44:02.269Z,19.77
2019-01-24T20:46:29.550Z,20.27
2019-01-24T20:48:56.617Z,19.57
2019-01-24T20:51:23.726Z,19.00
2019-01-24T20:53:50.828Z,18.47
2019-01-24T20:56:17.885Z,19.97
2019-01-24T20:58:44.945Z,20.33
2019-01-24T21:01:12.201Z,19.93
2019-01-24T21:03:39.327Z,19.10
2019-01-24T21:06:06.408Z,19.17
2019-01-24T21:08:36.704Z,19.33
2019-01-24T21:11:03.843Z,18.60
2019-01-24T21:13:30.914Z,18.83
2019-01-24T21:15:58.178Z,18.60
2019-01-24T21:18:25.264Z,18.73
2019-01-24T21:20:52.330Z,17.20
2019-01-24T21:23:19.472Z,18.60
2019-01-24T21:25:46.651Z,18.70
2019-01-24T21:28:13.789Z,17.30
2019-01-24T21:30:41.055Z,17.73
2019-01-24T21:33:08.189Z,18.60
2019-01-24T21:35:35.313Z,18.40
2019-01-24T21:38:02.419Z,17.33
2019-01-24T21:40:29.558Z,17.60
2019-01-24T21:42:56.644Z,18.73
2019-01-24T21:45:23.951Z,18.13
2019-01-24T21:47:51.018Z,17.70
2019-01-24T21:50:18.570Z,16.70
2019-01-24T21:52:45.913Z,16.53
2019-01-24T21:55:13.239Z,18.23
2019-01-24T21:57:40.343Z,16.47
2019-01-24T22:00:07.460Z,16.87
2019-01-24T22:02:34.539Z,15.73
2019-01-24T22:05:01.611Z,16.90
2019-01-24T22:07:28.808Z,15.57
2019-01-24T22:09:55.874Z,15.90
2019-01-24T22:12:22.969Z,16.13
2019-01-24T22:14:50.147Z,17.00
2019-01-24T22:17:17.825Z,15.83
2019-01-24T22:19:44.879Z,17.20
2019-01-24T22:22:12.127Z,15.60
2019-01-24T22:24:39.291Z,16.53
2019-01-24T22:27:07.447Z,15.60
2019-01-24T22:29:34.539Z,15.90
2019-01-24T22:32:01.605Z,16.90
2019-01-24T22:34:28.694Z,15.67
2019-01-24T22:36:55.797Z,15.23
2019-01-24T22:39:22.861Z,16.37
2019-01-24T22:41:49.958Z,16.00
2019-01-24T22:44:17.069Z,16.60
2019-01-24T22:46:44.150Z,15.63
2019-01-24T22:49:11.491Z,16.80
2019-01-24T22:51:38.583Z,16.33
2019-01-24T22:54:05.736Z,16.40
2019-01-24T22:56:35.433Z,16.27
2019-01-24T22:59:01.605Z,15.47
2019-01-24T23:01:28.669Z,15.87
2019-01-24T23:03:55.748Z,14.77
2019-01-24T23:06:23.326Z,15.80
2019-01-24T23:08:50.393Z,15.83
2019-01-24T23:11:17.580Z,15.00
2019-01-24T23:13:44.663Z,15.47
2019-01-24T23:16:11.887Z,16.20
2019-01-24T23:18:38.994Z,14.73
2019-01-24T23:21:06.092Z,15.40
2019-01-24T23:23:33.187Z,14.87
2019-01-24T23:26:00.258Z,13.40
2019-01-24T23:28:27.537Z,13.27
2019-01-24T23:30:54.616Z,14.40
2019-01-24T23:33:21.771Z,13.93
2019-01-24T23:35:48.876Z,14.47
2019-01-24T23:38:15.947Z,13.33
2019-01-24T23:40:43.196Z,14.90
2019-01-24T23:43:10.248Z,14.53
2019-01-24T23:45:37.411Z,14.17
2019-01-24T23:48:04.466Z,12.03
2019-01-24T23:50:31.572Z,13.50
2019-01-24T23:52:58.656Z,11.50
2019-01-24T23:55:26.054Z,12.87
2019-01-24T23:57:53.198Z,12.33
